Terminal Aerodrome Forecast
Issued by NWS

Home | Current Version | Previous Version | Text Only | Print | Product List | Glossary On
Versions: 1 2 3 4 5 6 7 8 9 10 11 12
909
FTUS45 KTFX 111138
TAFBZN
TAF
KBZN 111138Z 1112/1212 VRB06KT P6SM SCT100 BKN140
     FM111800 25008KT P6SM SCT070 BKN100
     FM120100 VRB06KT P6SM BKN070
     FM120500 VRB04KT P6SM VCSH SCT030 BKN070 PROB30 1207/1212 4SM
      -SHRASN BKN030=

USA.gov is the U.S. government's official web portal to all federal, state and local government web resources and services.